sensor_id;sensor_type;location;lat;lon;timestamp;P1;durP1;ratioP1;P2;durP2;ratioP2
44214;SDS011;29884;47.450;19.124;2023-07-13T00:01:47;3.15;;;1.33;;
44214;SDS011;29884;47.450;19.124;2023-07-13T00:04:15;6.55;;;1.52;;
44214;SDS011;29884;47.450;19.124;2023-07-13T00:06:42;7.57;;;1.40;;
44214;SDS011;29884;47.450;19.124;2023-07-13T00:09:10;7.20;;;1.17;;
44214;SDS011;29884;47.450;19.124;2023-07-13T00:11:38;3.65;;;1.10;;
44214;SDS011;29884;47.450;19.124;2023-07-13T00:14:04;5.70;;;1.10;;
44214;SDS011;29884;47.450;19.124;2023-07-13T00:16:30;2.95;;;1.00;;
44214;SDS011;29884;47.450;19.124;2023-07-13T00:18:55;3.95;;;1.67;;
44214;SDS011;29884;47.450;19.124;2023-07-13T00:21:21;2.75;;;0.90;;
44214;SDS011;29884;47.450;19.124;2023-07-13T00:23:47;3.53;;;0.88;;
44214;SDS011;29884;47.450;19.124;2023-07-13T00:26:13;5.15;;;0.98;;
44214;SDS011;29884;47.450;19.124;2023-07-13T00:28:39;2.70;;;0.90;;
44214;SDS011;29884;47.450;19.124;2023-07-13T00:31:07;1.63;;;0.70;;
44214;SDS011;29884;47.450;19.124;2023-07-13T00:33:33;1.55;;;0.88;;
44214;SDS011;29884;47.450;19.124;2023-07-13T00:35:58;3.58;;;0.80;;
44214;SDS011;29884;47.450;19.124;2023-07-13T00:38:24;3.58;;;0.70;;
44214;SDS011;29884;47.450;19.124;2023-07-13T00:40:50;1.42;;;0.70;;
44214;SDS011;29884;47.450;19.124;2023-07-13T00:43:20;1.58;;;0.70;;
44214;SDS011;29884;47.450;19.124;2023-07-13T00:48:14;2.58;;;1.00;;
44214;SDS011;29884;47.450;19.124;2023-07-13T00:50:46;1.33;;;0.70;;
44214;SDS011;29884;47.450;19.124;2023-07-13T00:53:18;2.38;;;0.90;;
44214;SDS011;29884;47.450;19.124;2023-07-13T00:55:45;2.70;;;0.80;;
44214;SDS011;29884;47.450;19.124;2023-07-13T00:58:12;2.67;;;0.80;;
44214;SDS011;29884;47.450;19.124;2023-07-13T01:00:38;3.83;;;0.80;;
44214;SDS011;29884;47.450;19.124;2023-07-13T01:03:05;1.67;;;0.80;;
44214;SDS011;29884;47.450;19.124;2023-07-13T01:05:32;1.67;;;0.75;;
44214;SDS011;29884;47.450;19.124;2023-07-13T01:07:59;4.65;;;1.10;;
44214;SDS011;29884;47.450;19.124;2023-07-13T01:10:26;3.33;;;0.82;;
44214;SDS011;29884;47.450;19.124;2023-07-13T01:12:53;2.22;;;0.80;;
44214;SDS011;29884;47.450;19.124;2023-07-13T01:18:31;1.35;;;0.70;;
44214;SDS011;29884;47.450;19.124;2023-07-13T01:23:23;2.08;;;0.70;;
44214;SDS011;29884;47.450;19.124;2023-07-13T01:25:50;2.20;;;0.80;;
44214;SDS011;29884;47.450;19.124;2023-07-13T01:28:16;2.30;;;0.90;;
44214;SDS011;29884;47.450;19.124;2023-07-13T01:30:43;2.15;;;0.88;;
44214;SDS011;29884;47.450;19.124;2023-07-13T01:33:11;1.85;;;0.80;;
44214;SDS011;29884;47.450;19.124;2023-07-13T01:35:39;2.60;;;0.80;;
44214;SDS011;29884;47.450;19.124;2023-07-13T01:38:05;3.13;;;0.82;;
44214;SDS011;29884;47.450;19.124;2023-07-13T01:40:31;2.45;;;0.80;;
44214;SDS011;29884;47.450;19.124;2023-07-13T01:42:58;2.70;;;0.85;;
44214;SDS011;29884;47.450;19.124;2023-07-13T01:45:23;3.90;;;0.70;;
44214;SDS011;29884;47.450;19.124;2023-07-13T01:47:49;3.22;;;0.88;;
44214;SDS011;29884;47.450;19.124;2023-07-13T01:50:15;1.60;;;0.80;;
44214;SDS011;29884;47.450;19.124;2023-07-13T01:52:41;1.42;;;0.70;;
44214;SDS011;29884;47.450;19.124;2023-07-13T01:55:07;1.90;;;0.73;;
44214;SDS011;29884;47.450;19.124;2023-07-13T01:57:33;1.90;;;0.90;;
44214;SDS011;29884;47.450;19.124;2023-07-13T01:59:59;1.83;;;0.90;;
44214;SDS011;29884;47.450;19.124;2023-07-13T02:02:25;1.85;;;0.95;;
44214;SDS011;29884;47.450;19.124;2023-07-13T02:04:51;1.90;;;1.00;;
44214;SDS011;29884;47.450;19.124;2023-07-13T02:07:17;2.63;;;0.80;;
44214;SDS011;29884;47.450;19.124;2023-07-13T02:09:42;1.98;;;0.82;;
44214;SDS011;29884;47.450;19.124;2023-07-13T02:12:08;2.05;;;0.90;;
44214;SDS011;29884;47.450;19.124;2023-07-13T02:14:34;2.40;;;0.90;;
44214;SDS011;29884;47.450;19.124;2023-07-13T02:17:00;1.75;;;0.90;;
44214;SDS011;29884;47.450;19.124;2023-07-13T02:19:25;2.55;;;0.90;;
44214;SDS011;29884;47.450;19.124;2023-07-13T02:21:51;1.80;;;0.80;;
44214;SDS011;29884;47.450;19.124;2023-07-13T02:24:17;3.10;;;1.00;;
44214;SDS011;29884;47.450;19.124;2023-07-13T02:26:44;3.45;;;0.90;;
44214;SDS011;29884;47.450;19.124;2023-07-13T02:29:10;2.95;;;0.90;;
44214;SDS011;29884;47.450;19.124;2023-07-13T02:31:36;3.78;;;1.10;;
44214;SDS011;29884;47.450;19.124;2023-07-13T02:34:02;1.65;;;0.80;;
44214;SDS011;29884;47.450;19.124;2023-07-13T02:36:29;2.20;;;0.93;;
44214;SDS011;29884;47.450;19.124;2023-07-13T02:38:55;3.63;;;1.13;;
44214;SDS011;29884;47.450;19.124;2023-07-13T02:41:20;3.17;;;0.90;;
44214;SDS011;29884;47.450;19.124;2023-07-13T02:43:48;2.28;;;1.00;;
44214;SDS011;29884;47.450;19.124;2023-07-13T02:46:14;2.20;;;1.00;;
44214;SDS011;29884;47.450;19.124;2023-07-13T02:48:39;3.25;;;1.00;;
44214;SDS011;29884;47.450;19.124;2023-07-13T02:51:06;2.35;;;0.90;;
44214;SDS011;29884;47.450;19.124;2023-07-13T02:53:33;3.38;;;1.10;;
44214;SDS011;29884;47.450;19.124;2023-07-13T02:56:00;1.80;;;1.05;;
44214;SDS011;29884;47.450;19.124;2023-07-13T02:58:26;5.18;;;1.17;;
44214;SDS011;29884;47.450;19.124;2023-07-13T03:00:52;3.28;;;1.10;;
44214;SDS011;29884;47.450;19.124;2023-07-13T03:03:18;2.30;;;0.85;;
44214;SDS011;29884;47.450;19.124;2023-07-13T03:05:44;2.22;;;1.00;;
44214;SDS011;29884;47.450;19.124;2023-07-13T03:08:15;2.22;;;0.90;;
44214;SDS011;29884;47.450;19.124;2023-07-13T03:10:40;2.58;;;0.90;;
44214;SDS011;29884;47.450;19.124;2023-07-13T03:13:06;1.50;;;0.90;;
44214;SDS011;29884;47.450;19.124;2023-07-13T03:15:32;3.65;;;0.90;;
44214;SDS011;29884;47.450;19.124;2023-07-13T03:17:57;2.15;;;1.00;;
44214;SDS011;29884;47.450;19.124;2023-07-13T03:20:23;2.95;;;1.10;;
44214;SDS011;29884;47.450;19.124;2023-07-13T03:22:49;2.88;;;0.90;;
44214;SDS011;29884;47.450;19.124;2023-07-13T03:25:15;2.70;;;0.90;;
44214;SDS011;29884;47.450;19.124;2023-07-13T03:27:40;2.85;;;0.90;;
44214;SDS011;29884;47.450;19.124;2023-07-13T03:30:06;3.63;;;1.10;;
44214;SDS011;29884;47.450;19.124;2023-07-13T03:32:32;3.40;;;0.93;;
44214;SDS011;29884;47.450;19.124;2023-07-13T03:34:58;3.47;;;1.00;;
44214;SDS011;29884;47.450;19.124;2023-07-13T03:37:24;5.20;;;1.00;;
44214;SDS011;29884;47.450;19.124;2023-07-13T03:39:49;3.90;;;1.13;;
44214;SDS011;29884;47.450;19.124;2023-07-13T03:42:15;2.80;;;1.08;;
44214;SDS011;29884;47.450;19.124;2023-07-13T03:44:41;4.70;;;1.20;;
44214;SDS011;29884;47.450;19.124;2023-07-13T03:47:11;5.30;;;1.20;;
44214;SDS011;29884;47.450;19.124;2023-07-13T03:49:37;4.30;;;1.25;;
44214;SDS011;29884;47.450;19.124;2023-07-13T03:52:02;7.45;;;1.27;;
44214;SDS011;29884;47.450;19.124;2023-07-13T03:54:28;6.25;;;1.30;;
44214;SDS011;29884;47.450;19.124;2023-07-13T03:56:54;3.38;;;1.58;;
44214;SDS011;29884;47.450;19.124;2023-07-13T03:59:20;3.47;;;1.30;;
44214;SDS011;29884;47.450;19.124;2023-07-13T04:01:46;4.40;;;1.15;;
44214;SDS011;29884;47.450;19.124;2023-07-13T04:04:12;4.80;;;1.15;;
44214;SDS011;29884;47.450;19.124;2023-07-13T04:06:38;3.17;;;1.48;;
44214;SDS011;29884;47.450;19.124;2023-07-13T04:09:04;4.68;;;1.42;;
44214;SDS011;29884;47.450;19.124;2023-07-13T04:11:33;5.88;;;1.30;;
44214;SDS011;29884;47.450;19.124;2023-07-13T04:14:01;3.22;;;1.40;;
44214;SDS011;29884;47.450;19.124;2023-07-13T04:16:27;3.47;;;1.20;;
44214;SDS011;29884;47.450;19.124;2023-07-13T04:18:53;3.00;;;1.20;;
44214;SDS011;29884;47.450;19.124;2023-07-13T04:21:24;2.17;;;1.45;;
44214;SDS011;29884;47.450;19.124;2023-07-13T04:23:50;3.65;;;1.20;;
44214;SDS011;29884;47.450;19.124;2023-07-13T04:26:16;4.30;;;1.33;;
44214;SDS011;29884;47.450;19.124;2023-07-13T04:28:42;2.47;;;1.10;;
44214;SDS011;29884;47.450;19.124;2023-07-13T04:31:07;3.05;;;0.90;;
44214;SDS011;29884;47.450;19.124;2023-07-13T04:33:33;2.50;;;1.08;;
44214;SDS011;29884;47.450;19.124;2023-07-13T04:35:59;2.40;;;0.90;;
44214;SDS011;29884;47.450;19.124;2023-07-13T04:38:29;5.20;;;1.08;;
44214;SDS011;29884;47.450;19.124;2023-07-13T04:40:56;1.67;;;0.80;;
44214;SDS011;29884;47.450;19.124;2023-07-13T04:43:24;3.97;;;0.95;;
44214;SDS011;29884;47.450;19.124;2023-07-13T04:45:51;2.30;;;0.90;;
44214;SDS011;29884;47.450;19.124;2023-07-13T04:48:17;3.45;;;1.00;;
44214;SDS011;29884;47.450;19.124;2023-07-13T04:50:44;1.33;;;0.90;;
44214;SDS011;29884;47.450;19.124;2023-07-13T04:53:10;3.10;;;0.85;;
44214;SDS011;29884;47.450;19.124;2023-07-13T04:55:36;3.40;;;1.00;;
44214;SDS011;29884;47.450;19.124;2023-07-13T04:58:02;2.40;;;1.10;;
44214;SDS011;29884;47.450;19.124;2023-07-13T05:00:29;3.90;;;1.15;;
44214;SDS011;29884;47.450;19.124;2023-07-13T05:02:55;2.95;;;1.10;;
44214;SDS011;29884;47.450;19.124;2023-07-13T05:05:22;2.45;;;0.90;;
44214;SDS011;29884;47.450;19.124;2023-07-13T05:07:48;2.42;;;1.15;;
44214;SDS011;29884;47.450;19.124;2023-07-13T05:10:14;3.63;;;1.55;;
44214;SDS011;29884;47.450;19.124;2023-07-13T05:12:40;4.80;;;1.63;;
44214;SDS011;29884;47.450;19.124;2023-07-13T05:15:06;3.55;;;1.00;;
44214;SDS011;29884;47.450;19.124;2023-07-13T05:17:32;13.93;;;1.30;;
44214;SDS011;29884;47.450;19.124;2023-07-13T05:19:58;4.13;;;0.80;;
44214;SDS011;29884;47.450;19.124;2023-07-13T05:22:24;2.83;;;0.80;;
44214;SDS011;29884;47.450;19.124;2023-07-13T05:24:50;3.30;;;0.88;;
44214;SDS011;29884;47.450;19.124;2023-07-13T05:27:15;2.90;;;0.65;;
44214;SDS011;29884;47.450;19.124;2023-07-13T05:29:41;3.40;;;0.80;;
44214;SDS011;29884;47.450;19.124;2023-07-13T05:32:07;3.10;;;0.80;;
44214;SDS011;29884;47.450;19.124;2023-07-13T05:34:33;2.53;;;0.88;;
44214;SDS011;29884;47.450;19.124;2023-07-13T05:36:58;3.03;;;0.80;;
44214;SDS011;29884;47.450;19.124;2023-07-13T05:39:24;1.98;;;0.70;;
44214;SDS011;29884;47.450;19.124;2023-07-13T05:41:51;1.45;;;0.75;;
44214;SDS011;29884;47.450;19.124;2023-07-13T05:44:17;1.75;;;0.70;;
44214;SDS011;29884;47.450;19.124;2023-07-13T05:46:43;1.50;;;0.70;;
44214;SDS011;29884;47.450;19.124;2023-07-13T05:49:09;3.28;;;0.80;;
44214;SDS011;29884;47.450;19.124;2023-07-13T05:51:35;1.50;;;0.70;;
44214;SDS011;29884;47.450;19.124;2023-07-13T05:54:01;1.13;;;0.55;;
44214;SDS011;29884;47.450;19.124;2023-07-13T05:56:27;1.27;;;0.50;;
44214;SDS011;29884;47.450;19.124;2023-07-13T05:58:53;1.13;;;0.50;;
44214;SDS011;29884;47.450;19.124;2023-07-13T06:01:18;1.42;;;0.50;;
44214;SDS011;29884;47.450;19.124;2023-07-13T06:03:45;0.80;;;0.57;;
44214;SDS011;29884;47.450;19.124;2023-07-13T06:06:12;2.10;;;0.43;;
44214;SDS011;29884;47.450;19.124;2023-07-13T06:08:38;2.53;;;0.50;;
44214;SDS011;29884;47.450;19.124;2023-07-13T06:13:34;0.75;;;0.38;;
44214;SDS011;29884;47.450;19.124;2023-07-13T06:16:01;0.60;;;0.30;;
44214;SDS011;29884;47.450;19.124;2023-07-13T06:18:29;2.42;;;0.40;;
44214;SDS011;29884;47.450;19.124;2023-07-13T06:20:56;0.88;;;0.40;;
44214;SDS011;29884;47.450;19.124;2023-07-13T06:23:22;1.17;;;0.60;;
44214;SDS011;29884;47.450;19.124;2023-07-13T06:25:48;0.93;;;0.40;;
44214;SDS011;29884;47.450;19.124;2023-07-13T06:28:13;0.43;;;0.32;;
44214;SDS011;29884;47.450;19.124;2023-07-13T06:30:39;0.88;;;0.50;;
44214;SDS011;29884;47.450;19.124;2023-07-13T06:33:05;1.13;;;0.47;;
44214;SDS011;29884;47.450;19.124;2023-07-13T06:35:31;1.63;;;0.80;;
44214;SDS011;29884;47.450;19.124;2023-07-13T06:37:57;2.00;;;0.50;;
44214;SDS011;29884;47.450;19.124;2023-07-13T06:40:22;2.20;;;0.50;;
44214;SDS011;29884;47.450;19.124;2023-07-13T06:42:48;1.15;;;0.50;;
44214;SDS011;29884;47.450;19.124;2023-07-13T06:45:14;1.00;;;0.50;;
44214;SDS011;29884;47.450;19.124;2023-07-13T06:47:40;2.03;;;0.50;;
44214;SDS011;29884;47.450;19.124;2023-07-13T06:50:06;1.05;;;0.50;;
44214;SDS011;29884;47.450;19.124;2023-07-13T06:52:32;2.85;;;0.50;;
44214;SDS011;29884;47.450;19.124;2023-07-13T06:54:58;1.20;;;0.40;;
44214;SDS011;29884;47.450;19.124;2023-07-13T06:57:24;1.42;;;0.40;;
44214;SDS011;29884;47.450;19.124;2023-07-13T06:59:49;0.68;;;0.50;;
44214;SDS011;29884;47.450;19.124;2023-07-13T07:02:15;1.02;;;0.60;;
44214;SDS011;29884;47.450;19.124;2023-07-13T07:04:41;0.88;;;0.40;;
44214;SDS011;29884;47.450;19.124;2023-07-13T07:07:06;1.40;;;0.57;;
44214;SDS011;29884;47.450;19.124;2023-07-13T07:09:32;1.27;;;0.60;;
44214;SDS011;29884;47.450;19.124;2023-07-13T07:11:57;2.78;;;0.50;;
44214;SDS011;29884;47.450;19.124;2023-07-13T07:14:23;0.90;;;0.40;;
44214;SDS011;29884;47.450;19.124;2023-07-13T07:16:49;3.05;;;0.60;;
44214;SDS011;29884;47.450;19.124;2023-07-13T07:19:15;1.33;;;0.60;;
44214;SDS011;29884;47.450;19.124;2023-07-13T07:21:41;0.88;;;0.60;;
44214;SDS011;29884;47.450;19.124;2023-07-13T07:24:07;0.65;;;0.50;;
44214;SDS011;29884;47.450;19.124;2023-07-13T07:26:33;2.28;;;0.57;;
44214;SDS011;29884;47.450;19.124;2023-07-13T07:28:59;0.88;;;0.50;;
44214;SDS011;29884;47.450;19.124;2023-07-13T07:31:25;2.55;;;0.47;;
44214;SDS011;29884;47.450;19.124;2023-07-13T07:33:50;0.88;;;0.50;;
44214;SDS011;29884;47.450;19.124;2023-07-13T07:36:16;2.45;;;0.63;;
44214;SDS011;29884;47.450;19.124;2023-07-13T07:38:43;1.10;;;0.50;;
44214;SDS011;29884;47.450;19.124;2023-07-13T07:41:08;1.45;;;0.50;;
44214;SDS011;29884;47.450;19.124;2023-07-13T07:43:34;1.80;;;0.60;;
44214;SDS011;29884;47.450;19.124;2023-07-13T07:46:01;1.00;;;0.60;;
44214;SDS011;29884;47.450;19.124;2023-07-13T07:48:28;2.90;;;0.70;;
44214;SDS011;29884;47.450;19.124;2023-07-13T07:50:53;3.22;;;0.60;;
44214;SDS011;29884;47.450;19.124;2023-07-13T07:53:19;2.97;;;0.60;;
44214;SDS011;29884;47.450;19.124;2023-07-13T07:55:45;1.33;;;0.60;;
44214;SDS011;29884;47.450;19.124;2023-07-13T07:58:11;2.30;;;0.60;;
44214;SDS011;29884;47.450;19.124;2023-07-13T08:00:36;1.77;;;0.60;;
44214;SDS011;29884;47.450;19.124;2023-07-13T08:03:02;1.33;;;0.50;;
44214;SDS011;29884;47.450;19.124;2023-07-13T08:05:28;1.35;;;0.50;;
44214;SDS011;29884;47.450;19.124;2023-07-13T08:07:54;1.30;;;0.50;;
44214;SDS011;29884;47.450;19.124;2023-07-13T08:10:20;1.33;;;0.60;;
44214;SDS011;29884;47.450;19.124;2023-07-13T08:12:46;3.58;;;0.50;;
44214;SDS011;29884;47.450;19.124;2023-07-13T08:15:13;1.13;;;0.50;;
44214;SDS011;29884;47.450;19.124;2023-07-13T08:17:40;1.65;;;0.55;;
44214;SDS011;29884;47.450;19.124;2023-07-13T08:20:06;1.33;;;0.60;;
44214;SDS011;29884;47.450;19.124;2023-07-13T08:22:33;0.70;;;0.50;;
44214;SDS011;29884;47.450;19.124;2023-07-13T08:25:00;1.15;;;0.60;;
44214;SDS011;29884;47.450;19.124;2023-07-13T08:27:26;1.83;;;0.50;;
44214;SDS011;29884;47.450;19.124;2023-07-13T08:29:53;0.70;;;0.50;;
44214;SDS011;29884;47.450;19.124;2023-07-13T08:32:20;2.38;;;0.73;;
44214;SDS011;29884;47.450;19.124;2023-07-13T08:34:47;0.95;;;0.60;;
44214;SDS011;29884;47.450;19.124;2023-07-13T08:37:13;1.30;;;0.60;;
44214;SDS011;29884;47.450;19.124;2023-07-13T08:39:40;2.92;;;0.70;;
44214;SDS011;29884;47.450;19.124;2023-07-13T08:45:14;4.25;;;0.70;;
44214;SDS011;29884;47.450;19.124;2023-07-13T08:47:51;1.60;;;0.60;;
44214;SDS011;29884;47.450;19.124;2023-07-13T08:50:37;1.23;;;0.65;;
44214;SDS011;29884;47.450;19.124;2023-07-13T08:53:40;1.77;;;0.60;;
44214;SDS011;29884;47.450;19.124;2023-07-13T08:56:15;2.72;;;0.60;;
44214;SDS011;29884;47.450;19.124;2023-07-13T08:58:44;2.33;;;0.70;;
44214;SDS011;29884;47.450;19.124;2023-07-13T09:01:45;2.70;;;0.60;;
44214;SDS011;29884;47.450;19.124;2023-07-13T09:04:29;1.10;;;0.60;;
44214;SDS011;29884;47.450;19.124;2023-07-13T09:07:05;1.33;;;0.50;;
44214;SDS011;29884;47.450;19.124;2023-07-13T09:18:04;0.85;;;0.60;;
44214;SDS011;29884;47.450;19.124;2023-07-13T09:20:37;2.95;;;0.60;;
44214;SDS011;29884;47.450;19.124;2023-07-13T09:23:21;1.85;;;0.68;;
44214;SDS011;29884;47.450;19.124;2023-07-13T09:25:53;0.82;;;0.60;;
44214;SDS011;29884;47.450;19.124;2023-07-13T09:28:25;0.95;;;0.60;;
44214;SDS011;29884;47.450;19.124;2023-07-13T09:33:33;1.33;;;0.60;;
44214;SDS011;29884;47.450;19.124;2023-07-13T09:36:00;1.00;;;0.60;;
44214;SDS011;29884;47.450;19.124;2023-07-13T09:38:28;1.17;;;0.55;;
44214;SDS011;29884;47.450;19.124;2023-07-13T09:43:38;1.70;;;0.70;;
44214;SDS011;29884;47.450;19.124;2023-07-13T09:46:24;2.30;;;0.60;;
44214;SDS011;29884;47.450;19.124;2023-07-13T09:48:50;1.60;;;0.80;;
44214;SDS011;29884;47.450;19.124;2023-07-13T09:51:16;1.42;;;0.63;;
44214;SDS011;29884;47.450;19.124;2023-07-13T09:53:42;2.38;;;0.70;;
44214;SDS011;29884;47.450;19.124;2023-07-13T09:56:21;1.92;;;0.70;;
44214;SDS011;29884;47.450;19.124;2023-07-13T09:58:48;1.80;;;0.70;;
44214;SDS011;29884;47.450;19.124;2023-07-13T10:01:14;1.05;;;0.60;;
44214;SDS011;29884;47.450;19.124;2023-07-13T10:03:51;1.30;;;0.60;;
44214;SDS011;29884;47.450;19.124;2023-07-13T10:06:19;2.08;;;0.60;;
44214;SDS011;29884;47.450;19.124;2023-07-13T10:08:47;1.20;;;0.60;;
44214;SDS011;29884;47.450;19.124;2023-07-13T10:11:22;1.90;;;0.73;;
44214;SDS011;29884;47.450;19.124;2023-07-13T10:13:52;1.20;;;0.60;;
44214;SDS011;29884;47.450;19.124;2023-07-13T10:16:24;1.00;;;0.65;;
44214;SDS011;29884;47.450;19.124;2023-07-13T10:18:57;1.55;;;0.60;;
44214;SDS011;29884;47.450;19.124;2023-07-13T10:21:29;0.90;;;0.60;;
44214;SDS011;29884;47.450;19.124;2023-07-13T10:24:06;1.73;;;0.70;;
44214;SDS011;29884;47.450;19.124;2023-07-13T10:26:41;1.20;;;0.60;;
44214;SDS011;29884;47.450;19.124;2023-07-13T10:29:34;1.35;;;0.60;;
44214;SDS011;29884;47.450;19.124;2023-07-13T10:32:08;1.45;;;0.70;;
44214;SDS011;29884;47.450;19.124;2023-07-13T10:34:36;3.08;;;0.70;;
44214;SDS011;29884;47.450;19.124;2023-07-13T10:37:02;2.50;;;0.70;;
44214;SDS011;29884;47.450;19.124;2023-07-13T10:39:33;2.42;;;0.50;;
44214;SDS011;29884;47.450;19.124;2023-07-13T10:42:01;1.48;;;0.50;;
44214;SDS011;29884;47.450;19.124;2023-07-13T10:44:30;1.15;;;0.75;;
44214;SDS011;29884;47.450;19.124;2023-07-13T10:47:01;1.25;;;0.43;;
44214;SDS011;29884;47.450;19.124;2023-07-13T10:49:38;1.33;;;0.57;;
44214;SDS011;29884;47.450;19.124;2023-07-13T10:52:05;0.75;;;0.50;;
44214;SDS011;29884;47.450;19.124;2023-07-13T10:54:51;1.35;;;0.50;;
44214;SDS011;29884;47.450;19.124;2023-07-13T10:57:21;1.00;;;0.43;;
44214;SDS011;29884;47.450;19.124;2023-07-13T10:59:49;1.70;;;0.60;;
44214;SDS011;29884;47.450;19.124;2023-07-13T11:02:43;2.22;;;0.60;;
44214;SDS011;29884;47.450;19.124;2023-07-13T11:07:54;1.70;;;0.60;;
44214;SDS011;29884;47.450;19.124;2023-07-13T11:16:01;1.30;;;0.40;;
44214;SDS011;29884;47.450;19.124;2023-07-13T11:18:38;1.13;;;0.52;;
44214;SDS011;29884;47.450;19.124;2023-07-13T11:21:13;0.73;;;0.40;;
44214;SDS011;29884;47.450;19.124;2023-07-13T11:23:42;0.85;;;0.50;;
44214;SDS011;29884;47.450;19.124;2023-07-13T11:29:22;0.82;;;0.45;;
44214;SDS011;29884;47.450;19.124;2023-07-13T11:31:59;1.05;;;0.35;;
44214;SDS011;29884;47.450;19.124;2023-07-13T11:36:54;0.90;;;0.50;;
44214;SDS011;29884;47.450;19.124;2023-07-13T11:42:02;1.17;;;0.50;;
44214;SDS011;29884;47.450;19.124;2023-07-13T11:44:33;1.65;;;0.50;;
44214;SDS011;29884;47.450;19.124;2023-07-13T11:47:00;2.00;;;0.40;;
44214;SDS011;29884;47.450;19.124;2023-07-13T11:49:54;0.93;;;0.30;;
44214;SDS011;29884;47.450;19.124;2023-07-13T11:52:35;0.80;;;0.32;;
44214;SDS011;29884;47.450;19.124;2023-07-13T11:55:03;0.80;;;0.40;;
44214;SDS011;29884;47.450;19.124;2023-07-13T11:57:41;0.60;;;0.32;;
44214;SDS011;29884;47.450;19.124;2023-07-13T12:00:25;2.70;;;0.35;;
44214;SDS011;29884;47.450;19.124;2023-07-13T12:02:54;2.05;;;0.45;;
44214;SDS011;29884;47.450;19.124;2023-07-13T12:05:22;1.33;;;0.50;;
44214;SDS011;29884;47.450;19.124;2023-07-13T12:07:49;1.77;;;0.40;;
44214;SDS011;29884;47.450;19.124;2023-07-13T12:10:19;0.80;;;0.40;;
44214;SDS011;29884;47.450;19.124;2023-07-13T12:12:51;0.73;;;0.40;;
44214;SDS011;29884;47.450;19.124;2023-07-13T12:20:41;2.15;;;0.32;;
44214;SDS011;29884;47.450;19.124;2023-07-13T12:23:19;0.70;;;0.40;;
44214;SDS011;29884;47.450;19.124;2023-07-13T12:25:52;1.63;;;0.40;;
44214;SDS011;29884;47.450;19.124;2023-07-13T12:28:22;0.68;;;0.40;;
44214;SDS011;29884;47.450;19.124;2023-07-13T12:30:58;0.85;;;0.50;;
44214;SDS011;29884;47.450;19.124;2023-07-13T12:33:28;0.77;;;0.40;;
44214;SDS011;29884;47.450;19.124;2023-07-13T12:35:55;3.58;;;0.52;;
44214;SDS011;29884;47.450;19.124;2023-07-13T12:38:24;0.70;;;0.50;;
44214;SDS011;29884;47.450;19.124;2023-07-13T12:40:51;0.90;;;0.50;;
44214;SDS011;29884;47.450;19.124;2023-07-13T12:43:17;1.00;;;0.50;;
44214;SDS011;29884;47.450;19.124;2023-07-13T12:45:57;1.75;;;0.50;;
44214;SDS011;29884;47.450;19.124;2023-07-13T12:48:24;1.25;;;0.40;;
44214;SDS011;29884;47.450;19.124;2023-07-13T12:50:50;1.02;;;0.45;;
44214;SDS011;29884;47.450;19.124;2023-07-13T12:53:27;1.02;;;0.50;;
44214;SDS011;29884;47.450;19.124;2023-07-13T12:55:56;0.70;;;0.50;;
44214;SDS011;29884;47.450;19.124;2023-07-13T12:58:37;1.65;;;0.60;;
44214;SDS011;29884;47.450;19.124;2023-07-13T13:01:05;1.17;;;0.60;;
44214;SDS011;29884;47.450;19.124;2023-07-13T13:03:35;2.65;;;0.55;;
44214;SDS011;29884;47.450;19.124;2023-07-13T13:08:34;1.55;;;0.55;;
44214;SDS011;29884;47.450;19.124;2023-07-13T13:11:01;1.05;;;0.50;;
44214;SDS011;29884;47.450;19.124;2023-07-13T13:13:27;0.90;;;0.60;;
44214;SDS011;29884;47.450;19.124;2023-07-13T13:15:53;1.83;;;0.60;;
44214;SDS011;29884;47.450;19.124;2023-07-13T13:18:20;0.80;;;0.50;;
44214;SDS011;29884;47.450;19.124;2023-07-13T13:20:47;0.73;;;0.50;;
44214;SDS011;29884;47.450;19.124;2023-07-13T13:23:15;1.35;;;0.60;;
44214;SDS011;29884;47.450;19.124;2023-07-13T13:25:46;1.65;;;0.50;;
44214;SDS011;29884;47.450;19.124;2023-07-13T13:28:19;1.15;;;0.60;;
44214;SDS011;29884;47.450;19.124;2023-07-13T13:30:47;0.50;;;0.40;;
44214;SDS011;29884;47.450;19.124;2023-07-13T13:33:17;1.42;;;0.40;;
44214;SDS011;29884;47.450;19.124;2023-07-13T13:35:44;1.60;;;0.55;;
44214;SDS011;29884;47.450;19.124;2023-07-13T13:38:13;0.90;;;0.52;;
44214;SDS011;29884;47.450;19.124;2023-07-13T13:40:41;1.88;;;0.40;;
44214;SDS011;29884;47.450;19.124;2023-07-13T13:43:23;0.77;;;0.40;;
44214;SDS011;29884;47.450;19.124;2023-07-13T13:45:55;1.75;;;0.50;;
44214;SDS011;29884;47.450;19.124;2023-07-13T13:50:58;0.70;;;0.40;;
44214;SDS011;29884;47.450;19.124;2023-07-13T13:53:25;1.50;;;0.40;;
44214;SDS011;29884;47.450;19.124;2023-07-13T13:55:51;0.60;;;0.50;;
44214;SDS011;29884;47.450;19.124;2023-07-13T13:58:20;1.13;;;0.50;;
44214;SDS011;29884;47.450;19.124;2023-07-13T14:00:45;1.27;;;0.50;;
44214;SDS011;29884;47.450;19.124;2023-07-13T14:03:16;1.33;;;0.60;;
44214;SDS011;29884;47.450;19.124;2023-07-13T14:05:44;1.45;;;0.50;;
44214;SDS011;29884;47.450;19.124;2023-07-13T14:08:12;1.27;;;0.57;;
44214;SDS011;29884;47.450;19.124;2023-07-13T14:10:44;1.02;;;0.57;;
44214;SDS011;29884;47.450;19.124;2023-07-13T14:13:18;1.05;;;0.52;;
44214;SDS011;29884;47.450;19.124;2023-07-13T14:15:47;0.63;;;0.50;;
44214;SDS011;29884;47.450;19.124;2023-07-13T14:18:13;0.80;;;0.57;;
44214;SDS011;29884;47.450;19.124;2023-07-13T14:20:43;1.52;;;0.65;;
44214;SDS011;29884;47.450;19.124;2023-07-13T14:23:10;0.95;;;0.60;;
44214;SDS011;29884;47.450;19.124;2023-07-13T14:25:37;3.70;;;0.60;;
44214;SDS011;29884;47.450;19.124;2023-07-13T14:28:04;2.13;;;0.60;;
44214;SDS011;29884;47.450;19.124;2023-07-13T14:30:50;1.95;;;0.50;;
44214;SDS011;29884;47.450;19.124;2023-07-13T14:33:17;0.60;;;0.50;;
44214;SDS011;29884;47.450;19.124;2023-07-13T14:35:43;0.80;;;0.50;;
44214;SDS011;29884;47.450;19.124;2023-07-13T14:38:16;1.10;;;0.60;;
44214;SDS011;29884;47.450;19.124;2023-07-13T14:40:44;1.08;;;0.60;;
44214;SDS011;29884;47.450;19.124;2023-07-13T14:43:11;1.50;;;0.50;;
44214;SDS011;29884;47.450;19.124;2023-07-13T14:45:41;0.93;;;0.55;;
44214;SDS011;29884;47.450;19.124;2023-07-13T14:48:22;0.57;;;0.45;;
44214;SDS011;29884;47.450;19.124;2023-07-13T14:50:56;0.80;;;0.60;;
44214;SDS011;29884;47.450;19.124;2023-07-13T14:53:24;1.27;;;0.70;;
44214;SDS011;29884;47.450;19.124;2023-07-13T14:55:52;1.83;;;0.60;;
44214;SDS011;29884;47.450;19.124;2023-07-13T14:58:18;0.85;;;0.60;;
44214;SDS011;29884;47.450;19.124;2023-07-13T15:00:44;1.95;;;0.60;;
44214;SDS011;29884;47.450;19.124;2023-07-13T15:03:21;0.75;;;0.57;;
44214;SDS011;29884;47.450;19.124;2023-07-13T15:05:49;0.93;;;0.52;;
44214;SDS011;29884;47.450;19.124;2023-07-13T15:08:15;0.90;;;0.60;;
44214;SDS011;29884;47.450;19.124;2023-07-13T15:10:42;1.05;;;0.50;;
44214;SDS011;29884;47.450;19.124;2023-07-13T15:13:18;1.13;;;0.60;;
44214;SDS011;29884;47.450;19.124;2023-07-13T15:15:46;1.35;;;0.60;;
44214;SDS011;29884;47.450;19.124;2023-07-13T15:18:14;1.42;;;0.60;;
44214;SDS011;29884;47.450;19.124;2023-07-13T15:20:43;1.45;;;0.60;;
44214;SDS011;29884;47.450;19.124;2023-07-13T15:23:10;1.58;;;0.55;;
44214;SDS011;29884;47.450;19.124;2023-07-13T15:25:37;1.25;;;0.55;;
44214;SDS011;29884;47.450;19.124;2023-07-13T15:28:03;1.25;;;0.60;;
44214;SDS011;29884;47.450;19.124;2023-07-13T15:30:30;2.80;;;0.60;;
44214;SDS011;29884;47.450;19.124;2023-07-13T15:33:01;1.00;;;0.60;;
44214;SDS011;29884;47.450;19.124;2023-07-13T15:35:42;1.38;;;0.70;;